Scf Baltica — A8IA5 — position and weather

sailwx.info

Track history (hours):
 
Tides and Currents Weather Stations Pressure Air Temp Water Temp Dewpoint Dewpoint Depression Visibility Wind Speed Wind Dir Waves Ship Positions

Scf Baltica

Last reported at 2015-Apr-01 16:31 UTC. Time now 2015-Apr-01 16:36 UTC.
Position N 50°52' E 001°11'.

Length 250 m; draft 14.3 m.

Type: Ship. MMSI: 636012813.

Date/timePositionNaut miles runAvg speedWind from/ knotsBaromVisibWave heightAir tempDewpointWater temp
2015-Apr-01 16:31N 50°52' E 001°11'1212.8
2015-Apr-01 15:33N 51°00' E 001°26'1313.0
2015-Apr-01 14:33N 51°09' E 001°40'1211.9
2015-Apr-01 13:34N 51°18' E 001°52'1110.9
2015-Apr-01 12:34N 51°28' E 002°01'1210.5
2015-Apr-01 11:23N 51°37' E 002°14'  
2015-Mar-30 05:09N 57°50' E 010°29'711.3
2015-Mar-30 04:33N 57°50' E 010°42'1010.3
2015-Mar-30 03:33N 57°43' E 010°57'1212.4
2015-Mar-30 02:33N 57°35' E 011°14'1211.8
2015-Mar-30 01:33N 57°26' E 011°28'1212.0
2015-Mar-30 00:33N 57°14' E 011°35'1212.2
2015-Mar-29 23:33N 57°03' E 011°42'1212.0
2015-Mar-29 22:33N 56°51' E 011°50'1110.7
2015-Mar-29 21:33N 56°41' E 011°49'12710.5
2015-Mar-29 09:25N 54°37' E 010°57'1011.5
2015-Mar-29 08:33N 54°35' E 011°14'1212.2
2015-Mar-29 07:33N 54°30' E 011°33'1211.8
2015-Mar-29 06:33N 54°27' E 011°52'1111.3
2015-Mar-29 05:33N 54°28' E 012°12'1111.0
2015-Mar-29 04:34N 54°38' E 012°19'8 7.9
2015-Mar-29 03:33N 54°42' E 012°31'7 7.3
2015-Mar-29 02:33N 54°46' E 012°42'11 9.8
2015-Mar-29 01:29N 54°50' E 012°59'1112.1
2015-Mar-29 00:33N 54°54' E 013°17'1212.1
2015-Mar-28 23:33N 54°58' E 013°37'1212.0
2015-Mar-28 22:33N 55°02' E 013°56'1111.1
2015-Mar-28 21:33N 55°09' E 014°12'1212.1
2015-Mar-28 20:33N 55°18' E 014°25'1212.0
2015-Mar-28 19:34N 55°27' E 014°39'1212.3
2015-Mar-28 18:34N 55°33' E 014°58'1212.1
2015-Mar-28 17:33N 55°38' E 015°18'1212.1
2015-Mar-28 16:34N 55°41' E 015°38'33711.5
2015-Mar-27 11:18N 59°36' E 023°11'1012.6
2015-Mar-27 10:33N 59°39' E 023°29'2612.5
2015-Mar-27 08:28N 59°46' E 024°19'1112.4
2015-Mar-27 07:33N 59°48' E 024°40'5112.3
2015-Mar-27 03:26N 59°60' E 026°19'1012.0
2015-Mar-27 02:33N 60°01' E 026°40'1212.2
2015-Mar-27 01:33N 59°59' E 027°04'7 0.2
2015-Mar-25 11:10N 60°02' E 027°18'913.2
2015-Mar-25 10:29N 59°58' E 027°02'1212.8
2015-Mar-25 09:33N 59°59' E 026°39'5613.0
2015-Mar-25 05:16N 59°46' E 024°51'912.4
2015-Mar-25 04:33N 59°44' E 024°34'2210.9
2015-Mar-25 02:32N 59°38' E 023°52'1111.0
2015-Mar-25 01:31N 59°34' E 023°31'33711.5
2015-Mar-23 20:08N 55°44' E 015°51'712.2
2015-Mar-23 19:33N 55°40' E 015°40'1211.9
2015-Mar-23 18:33N 55°34' E 015°21'1212.0
2015-Mar-23 17:33N 55°29' E 015°02'1212.0
2015-Mar-23 16:33N 55°24' E 014°43'1212.1
2015-Mar-23 15:34N 55°15' E 014°28'1212.2
2015-Mar-23 14:33N 55°06' E 014°15'1311.6
2015-Mar-23 13:26N 54°59' E 013°56'1011.9
2015-Mar-23 12:33N 54°55' E 013°39'1311.7
2015-Mar-23 11:27N 54°50' E 013°18'1111.7
2015-Mar-23 10:33N 54°47' E 013°01'1211.9
2015-Mar-23 09:33N 54°43' E 012°42'1211.9
2015-Mar-23 08:33N 54°37' E 012°24'1312.6
2015-Mar-23 07:33N 54°27' E 012°12'1313.1
2015-Mar-23 06:33N 54°25' E 011°49'1413.7
2015-Mar-23 05:33N 54°30' E 011°27'1313.3
2015-Mar-23 04:33N 54°36' E 011°07'1410.9
2015-Mar-23 03:16N 54°47' E 010°51'2312.5
2015-Mar-23 01:25N 55°09' E 011°03'8711.0
2015-Mar-22 17:31N 56°35' E 011°28'  
Track history (hours):
 
Tides and Currents Weather Stations Pressure Air Temp Water Temp Dewpoint Dewpoint Depression Visibility Wind Speed Wind Dir Waves Ship Positions

Scf Baltica

Last reported at 2015-Apr-01 16:31 UTC. Time now 2015-Apr-01 16:36 UTC.
Position N 50°52' E 001°11'.

Length 250 m; draft 14.3 m.

Type: Ship. MMSI: 636012813.

Date/timePositionNaut miles runAvg speedWind from/ knotsBaromVisibWave heightAir tempDewpointWater temp
2015-Apr-01 16:31N 50°52' E 001°11'1212.8
2015-Apr-01 15:33N 51°00' E 001°26'1313.0
2015-Apr-01 14:33N 51°09' E 001°40'1211.9
2015-Apr-01 13:34N 51°18' E 001°52'1110.9
2015-Apr-01 12:34N 51°28' E 002°01'1210.5
2015-Apr-01 11:23N 51°37' E 002°14'  
2015-Mar-30 05:09N 57°50' E 010°29'711.3
2015-Mar-30 04:33N 57°50' E 010°42'1010.3
2015-Mar-30 03:33N 57°43' E 010°57'1212.4
2015-Mar-30 02:33N 57°35' E 011°14'1211.8
2015-Mar-30 01:33N 57°26' E 011°28'1212.0
2015-Mar-30 00:33N 57°14' E 011°35'1212.2
2015-Mar-29 23:33N 57°03' E 011°42'1212.0
2015-Mar-29 22:33N 56°51' E 011°50'1110.7
2015-Mar-29 21:33N 56°41' E 011°49'12710.5
2015-Mar-29 09:25N 54°37' E 010°57'1011.5
2015-Mar-29 08:33N 54°35' E 011°14'1212.2
2015-Mar-29 07:33N 54°30' E 011°33'1211.8
2015-Mar-29 06:33N 54°27' E 011°52'1111.3
2015-Mar-29 05:33N 54°28' E 012°12'1111.0
2015-Mar-29 04:34N 54°38' E 012°19'8 7.9
2015-Mar-29 03:33N 54°42' E 012°31'7 7.3
2015-Mar-29 02:33N 54°46' E 012°42'11 9.8
2015-Mar-29 01:29N 54°50' E 012°59'1112.1
2015-Mar-29 00:33N 54°54' E 013°17'1212.1
2015-Mar-28 23:33N 54°58' E 013°37'1212.0
2015-Mar-28 22:33N 55°02' E 013°56'1111.1
2015-Mar-28 21:33N 55°09' E 014°12'1212.1
2015-Mar-28 20:33N 55°18' E 014°25'1212.0
2015-Mar-28 19:34N 55°27' E 014°39'1212.3
2015-Mar-28 18:34N 55°33' E 014°58'1212.1
2015-Mar-28 17:33N 55°38' E 015°18'1212.1
2015-Mar-28 16:34N 55°41' E 015°38'33711.5
2015-Mar-27 11:18N 59°36' E 023°11'1012.6
2015-Mar-27 10:33N 59°39' E 023°29'2612.5
2015-Mar-27 08:28N 59°46' E 024°19'1112.4
2015-Mar-27 07:33N 59°48' E 024°40'5112.3
2015-Mar-27 03:26N 59°60' E 026°19'1012.0
2015-Mar-27 02:33N 60°01' E 026°40'1212.2
2015-Mar-27 01:33N 59°59' E 027°04'7 0.2
2015-Mar-25 11:10N 60°02' E 027°18'913.2
2015-Mar-25 10:29N 59°58' E 027°02'1212.8
2015-Mar-25 09:33N 59°59' E 026°39'5613.0
2015-Mar-25 05:16N 59°46' E 024°51'912.4
2015-Mar-25 04:33N 59°44' E 024°34'2210.9
2015-Mar-25 02:32N 59°38' E 023°52'1111.0
2015-Mar-25 01:31N 59°34' E 023°31'33711.5
2015-Mar-23 20:08N 55°44' E 015°51'712.2
2015-Mar-23 19:33N 55°40' E 015°40'1211.9
2015-Mar-23 18:33N 55°34' E 015°21'1212.0
2015-Mar-23 17:33N 55°29' E 015°02'1212.0
2015-Mar-23 16:33N 55°24' E 014°43'1212.1
2015-Mar-23 15:34N 55°15' E 014°28'1212.2
2015-Mar-23 14:33N 55°06' E 014°15'1311.6
2015-Mar-23 13:26N 54°59' E 013°56'1011.9
2015-Mar-23 12:33N 54°55' E 013°39'1311.7
2015-Mar-23 11:27N 54°50' E 013°18'1111.7
2015-Mar-23 10:33N 54°47' E 013°01'1211.9
2015-Mar-23 09:33N 54°43' E 012°42'1211.9
2015-Mar-23 08:33N 54°37' E 012°24'1312.6
2015-Mar-23 07:33N 54°27' E 012°12'1313.1
2015-Mar-23 06:33N 54°25' E 011°49'1413.7
2015-Mar-23 05:33N 54°30' E 011°27'1313.3
2015-Mar-23 04:33N 54°36' E 011°07'1410.9
2015-Mar-23 03:16N 54°47' E 010°51'2312.5
2015-Mar-23 01:25N 55°09' E 011°03'8711.0
2015-Mar-22 17:31N 56°35' E 011°28'  

Dump ship's entire track history